Terminal Aerodrome Forecast
Issued by NWS

Current Version | Previous Version | Graphics & Text | Print | Product List | Glossary On
Versions: 1 2 3 4 5 6 7 8 9 10 11 12 13 14 15 16 17
000
FTUS41 KILN 241748
TAFLUK
TAF
KLUK 241748Z 2418/2518 10006KT P6SM -SHRA BKN025 OVC050
      TEMPO 2418/2421 5SM -SHRA
     FM242100 07006KT P6SM -SHRA VCTS OVC050CB
      TEMPO 2421/2422 4SM TSRA OVC025CB
     FM242300 08006KT 5SM -SHRA VCTS OVC015CB
     FM250100 31007KT 4SM -SHRA OVC015
     FM250600 29007KT 5SM -SHRA BR OVC008
     FM251700 30011KT P6SM -SHRA OVC015=

USA.gov is the U.S. government's official web portal to all federal, state and local government web resources and services.